Aparecida do Taboado, Brazil
Current Conditions -  °F | °C
As of 9:00 AM on Thursday 23 Oct 2014 (Local Time) from SBSR Reporting Station
Scattered Clouds Scattered Clouds  
Wind Chill: 79°   Ceiling: Unl
Heat Index: 80°   Visibility: 6mi
Dew Point: 61°   Wind: 17mph
Humidity: 54%   Direction: 60°ENE
Pressure: 30.12"   Gusts: NA
Location:  20.09°S, 51.09°W
Report Text: SBSR 231200Z 06015KT 9999 SCT045 SCT080 26/16 Q1020
Loading
Personal Weather Stations






























Interactive Weather Map
Tropical Storm Tracking
New forecast layout! Learn more

10-Day Weather Forecast

Advertisements
Track Severe Weather on mobile